Resums METAR propers

 

LEGE - Gerona/Costa Bra, Spain
DistÓncia des de l'estaciˇ: S 12km
Actualitzaciˇ: 09/06/2023 07:00
Parcialment cobert
Parcialment cobert
 Vent del SO
Vent: SO 7 km/h
Temperatura: 64°F , 18°C
Rosada: 63°F , 17°C
Humitat: 94%
Bar˛metre: 1009 hPa
Nuvolositat: Parcialment cobert
Visibilitat: 10 km
Detalls nuvolositat: Alguns n˙vols 1500 ft
Parcialment cobert 5000 ft
2023/06/09 05:00 LEGE 090500Z 22004KT 190V270 9999 FEW015 SCT050 18/17 Q1009